createdAt,value
2022-11-27T00:01:16.707Z,101249.72
2022-11-27T00:03:44.157Z,101257.56
2022-11-27T00:06:16.614Z,101245.16
2022-11-27T00:08:44.723Z,101240.69
2022-11-27T00:11:18.359Z,101231.69
2022-11-27T00:13:46.190Z,101234.50
2022-11-27T00:16:14.522Z,101236.75
2022-11-27T00:18:42.198Z,101233.94
2022-11-27T00:21:16.474Z,101240.56
2022-11-27T00:23:44.158Z,101228.28
2022-11-27T00:26:11.556Z,101241.66
2022-11-27T00:28:38.783Z,101229.84
2022-11-27T00:31:33.354Z,101231.47
2022-11-27T00:34:02.463Z,101229.84
2022-11-27T00:36:31.110Z,101230.97
2022-11-27T00:38:58.000Z,101228.69
2022-11-27T00:41:28.106Z,101222.25
2022-11-27T00:43:55.569Z,101220.25
2022-11-27T00:46:28.709Z,101217.47
2022-11-27T00:48:56.984Z,101211.28
2022-11-27T00:51:25.156Z,101219.66
2022-11-27T00:53:53.130Z,101202.34
2022-11-27T00:56:23.380Z,101204.47
2022-11-27T00:58:50.356Z,101202.97
2022-11-27T01:01:25.754Z,101201.50
2022-11-27T01:03:52.509Z,101200.72
2022-11-27T01:06:20.461Z,101197.69
2022-11-27T01:08:48.140Z,101195.47
2022-11-27T01:11:27.049Z,101179.09
2022-11-27T01:13:57.074Z,101189.88
2022-11-27T01:16:26.415Z,101189.56
2022-11-27T01:18:55.607Z,101194.09
2022-11-27T01:21:22.812Z,101187.09
2022-11-27T01:23:49.903Z,101201.69
2022-11-27T01:26:18.727Z,101199.50
2022-11-27T01:28:45.800Z,101190.28
2022-11-27T01:31:19.009Z,101176.84
2022-11-27T01:33:47.058Z,101185.53
2022-11-27T01:36:15.577Z,101191.97
2022-11-27T01:38:42.543Z,101196.72
2022-11-27T01:41:21.968Z,101186.00
2022-11-27T01:43:54.970Z,101205.25
2022-11-27T01:46:33.211Z,101210.00
2022-11-27T01:49:11.595Z,101195.91
2022-11-27T01:51:50.597Z,101216.09
2022-11-27T01:54:19.217Z,101207.41
2022-11-27T01:56:50.433Z,101191.38
2022-11-27T01:59:18.533Z,101202.59
2022-11-27T02:01:45.398Z,101196.63
2022-11-27T02:04:12.482Z,101190.66
2022-11-27T02:06:39.566Z,101193.19
2022-11-27T02:09:06.739Z,101195.38
2022-11-27T02:11:46.824Z,101192.84
2022-11-27T02:14:22.459Z,101191.16
2022-11-27T02:17:10.437Z,101178.81
2022-11-27T02:20:12.077Z,101179.38
2022-11-27T02:23:14.046Z,101191.03
2022-11-27T02:26:01.823Z,101192.03
2022-11-27T02:28:50.119Z,101188.09
2022-11-27T02:31:22.556Z,101191.19
2022-11-27T02:33:54.263Z,101180.22
2022-11-27T02:36:30.063Z,101183.09
2022-11-27T02:39:05.089Z,101187.56
2022-11-27T02:41:45.349Z,101187.75
2022-11-27T02:44:13.086Z,101189.34
2022-11-27T02:46:42.093Z,101188.00
2022-11-27T02:49:16.678Z,101187.75
2022-11-27T02:51:57.527Z,101170.09
2022-11-27T02:54:28.124Z,101159.97
2022-11-27T02:56:58.204Z,101169.25
2022-11-27T02:59:29.464Z,101163.25
2022-11-27T03:02:00.987Z,101154.56
2022-11-27T03:04:34.662Z,101140.41
2022-11-27T03:07:09.271Z,101140.66
2022-11-27T03:09:40.237Z,101152.91
2022-11-27T03:12:10.238Z,101142.44
2022-11-27T03:14:39.524Z,101148.69
2022-11-27T03:17:28.344Z,101122.88
2022-11-27T03:20:01.100Z,101143.28
2022-11-27T03:22:28.112Z,101125.91
2022-11-27T03:24:55.450Z,101131.22
2022-11-27T03:27:30.185Z,101126.25
2022-11-27T03:30:02.635Z,101127.34
2022-11-27T03:32:31.182Z,101117.88
2022-11-27T03:34:57.927Z,101111.75
2022-11-27T03:37:25.322Z,101126.91
2022-11-27T03:39:52.120Z,101127.78
2022-11-27T03:42:39.168Z,101130.47
2022-11-27T03:45:14.856Z,101133.63
2022-11-27T03:47:44.601Z,101142.69
2022-11-27T03:50:29.935Z,101131.47
2022-11-27T03:53:14.238Z,101121.34
2022-11-27T03:56:18.461Z,101138.88
2022-11-27T03:59:05.596Z,101131.22
2022-11-27T04:01:32.383Z,101141.94
2022-11-27T04:03:59.278Z,101134.69
2022-11-27T04:06:26.199Z,101150.88
2022-11-27T04:08:52.895Z,101124.63
2022-11-27T04:11:19.970Z,101129.28
2022-11-27T04:13:46.851Z,101131.41
2022-11-27T04:16:13.663Z,101128.84
2022-11-27T04:18:40.463Z,101125.88
2022-11-27T04:21:07.302Z,101135.00
2022-11-27T04:23:34.015Z,101135.88
2022-11-27T04:26:00.730Z,101135.16
2022-11-27T04:28:27.436Z,101132.91
2022-11-27T04:30:54.969Z,101131.25
2022-11-27T04:33:22.162Z,101120.63
2022-11-27T04:35:50.087Z,101112.06
2022-11-27T04:38:17.045Z,101110.56
2022-11-27T04:40:44.143Z,101119.72
2022-11-27T04:43:13.323Z,101122.66
2022-11-27T04:45:41.300Z,101123.22
2022-11-27T04:48:08.135Z,101129.94
2022-11-27T04:50:34.829Z,101105.81
2022-11-27T04:53:01.613Z,101106.78
2022-11-27T04:55:28.524Z,101114.75
2022-11-27T04:57:55.351Z,101107.63
2022-11-27T05:00:22.351Z,101102.03
2022-11-27T05:02:50.500Z,101084.53
2022-11-27T05:05:17.532Z,101106.16
2022-11-27T05:07:44.333Z,101081.66
2022-11-27T05:10:11.517Z,101090.72
2022-11-27T05:12:38.240Z,101091.47
2022-11-27T05:15:05.469Z,101091.22
2022-11-27T05:17:32.283Z,101088.63
2022-11-27T05:20:00.445Z,101099.13
2022-11-27T05:22:27.179Z,101091.94
2022-11-27T05:24:54.091Z,101073.81
2022-11-27T05:27:20.834Z,101080.00
2022-11-27T05:29:47.538Z,101093.94
2022-11-27T05:32:14.398Z,101083.31
2022-11-27T05:34:41.271Z,101101.91
2022-11-27T05:37:08.262Z,101094.34
2022-11-27T05:39:35.214Z,101086.81
2022-11-27T05:42:01.992Z,101094.66
2022-11-27T05:44:28.879Z,101087.94
2022-11-27T05:46:57.345Z,101092.28
2022-11-27T05:49:24.206Z,101048.69
2022-11-27T05:51:51.739Z,101076.38
2022-11-27T05:54:19.599Z,101064.56
2022-11-27T05:56:46.362Z,101074.75
2022-11-27T05:59:13.209Z,101064.81
2022-11-27T06:01:40.174Z,101074.44
2022-11-27T06:04:06.935Z,101078.06
2022-11-27T06:06:33.634Z,101076.09
2022-11-27T06:09:00.866Z,101065.78
2022-11-27T06:11:27.705Z,101070.66
2022-11-27T06:13:54.488Z,101068.19
2022-11-27T06:16:24.133Z,101064.88
2022-11-27T06:18:52.448Z,101046.78
2022-11-27T06:21:21.371Z,101043.19
2022-11-27T06:23:49.028Z,101038.16
2022-11-27T06:26:22.019Z,101037.91
2022-11-27T06:28:49.993Z,101041.56
2022-11-27T06:31:19.952Z,101035.16
2022-11-27T06:33:51.334Z,101046.13
2022-11-27T06:36:19.146Z,101033.41
2022-11-27T06:38:46.660Z,101010.38
2022-11-27T06:41:19.021Z,101011.00
2022-11-27T06:43:46.226Z,101018.25
2022-11-27T06:46:16.260Z,101009.75
2022-11-27T06:48:44.628Z,101005.22
2022-11-27T06:51:13.392Z,101013.53
2022-11-27T06:53:40.486Z,101018.28
2022-11-27T06:56:13.866Z,101022.22
2022-11-27T06:58:41.048Z,101025.53
2022-11-27T07:01:13.886Z,101021.19
2022-11-27T07:03:40.996Z,101027.47
2022-11-27T07:06:10.332Z,101028.63
2022-11-27T07:08:37.966Z,101022.00
2022-11-27T07:11:18.420Z,101006.34
2022-11-27T07:13:46.281Z,101025.22
2022-11-27T07:16:13.995Z,101016.63
2022-11-27T07:18:43.003Z,101019.56
2022-11-27T07:21:10.433Z,100990.41
2022-11-27T07:23:38.245Z,101007.66
2022-11-27T07:26:07.711Z,101009.06
2022-11-27T07:28:35.168Z,101008.84
2022-11-27T07:31:02.345Z,101013.03
2022-11-27T07:33:29.046Z,101009.91
2022-11-27T07:36:05.187Z,101003.19
2022-11-27T07:38:31.876Z,101000.63
2022-11-27T07:41:03.288Z,100999.00
2022-11-27T07:43:31.763Z,101008.00
2022-11-27T07:45:58.784Z,101000.78
2022-11-27T07:48:25.682Z,100998.53
2022-11-27T07:50:52.507Z,100981.25
2022-11-27T07:53:19.217Z,100974.38
2022-11-27T07:55:45.956Z,100985.03
2022-11-27T07:58:12.779Z,100979.19
2022-11-27T08:00:39.666Z,101000.16
2022-11-27T08:03:06.676Z,100983.09
2022-11-27T08:05:37.429Z,100988.13
2022-11-27T08:08:05.086Z,100984.81
2022-11-27T08:10:34.945Z,100968.84
2022-11-27T08:13:01.948Z,100982.31
2022-11-27T08:15:28.774Z,100976.44
2022-11-27T08:17:55.597Z,100974.31
2022-11-27T08:20:24.387Z,100979.41
2022-11-27T08:22:51.321Z,100985.00
2022-11-27T08:25:18.128Z,100977.25
2022-11-27T08:27:45.102Z,101000.19
2022-11-27T08:30:12.139Z,100997.69
2022-11-27T08:32:40.343Z,100977.28
2022-11-27T08:35:07.756Z,100990.44
2022-11-27T08:37:35.128Z,100982.06
2022-11-27T08:40:02.331Z,100984.63
2022-11-27T08:42:29.197Z,100981.88
2022-11-27T08:44:56.063Z,100974.03
2022-11-27T08:47:22.763Z,100978.47
2022-11-27T08:49:49.548Z,100980.16
2022-11-27T08:52:16.314Z,100976.03
2022-11-27T08:54:43.217Z,100996.19
2022-11-27T08:57:10.159Z,100990.31
2022-11-27T08:59:38.188Z,100977.19
2022-11-27T09:02:04.890Z,100978.50
2022-11-27T09:04:31.861Z,100981.03
2022-11-27T09:06:58.955Z,100986.63
2022-11-27T09:09:25.828Z,100981.63
2022-11-27T09:11:54.873Z,100994.81
2022-11-27T09:14:21.807Z,100983.91
2022-11-27T09:16:48.678Z,100999.31
2022-11-27T09:19:15.642Z,101003.19
2022-11-27T09:21:42.441Z,100999.28
2022-11-27T09:24:09.584Z,101000.69
2022-11-27T09:26:36.423Z,100997.06
2022-11-27T09:29:04.077Z,101008.28
2022-11-27T09:31:30.873Z,101015.00
2022-11-27T09:33:58.817Z,101020.03
2022-11-27T09:36:26.935Z,101030.16
2022-11-27T09:38:54.432Z,101035.19
2022-11-27T09:41:42.728Z,101034.34
2022-11-27T09:44:52.976Z,101048.31
2022-11-27T09:47:19.675Z,101049.13
2022-11-27T09:49:51.988Z,101036.56
2022-11-27T09:53:08.061Z,101036.28
2022-11-27T09:55:43.316Z,101041.59
2022-11-27T09:58:22.499Z,101041.81
2022-11-27T10:00:49.202Z,101050.75
2022-11-27T10:03:20.894Z,101060.22
2022-11-27T10:06:21.300Z,101066.63
2022-11-27T10:09:02.871Z,101049.41
2022-11-27T10:11:38.730Z,101047.47
2022-11-27T10:14:39.966Z,101041.53
2022-11-27T10:17:20.758Z,101013.47
2022-11-27T10:20:13.238Z,101026.72
2022-11-27T10:22:54.002Z,101042.66
2022-11-27T10:25:40.966Z,101060.31
2022-11-27T10:28:10.420Z,101048.59
2022-11-27T10:30:51.627Z,101028.63
2022-11-27T10:33:23.918Z,101045.91
2022-11-27T10:35:51.420Z,101033.63
2022-11-27T10:38:26.731Z,101028.63
2022-11-27T10:41:41.946Z,101046.16
2022-11-27T10:44:35.311Z,101017.03
2022-11-27T10:47:05.828Z,101032.13
2022-11-27T10:49:34.226Z,101026.00
2022-11-27T10:52:01.008Z,101052.22
2022-11-27T10:54:32.499Z,101065.41
2022-11-27T10:57:08.328Z,101049.19
2022-11-27T10:59:42.016Z,101066.56
2022-11-27T11:02:45.191Z,101073.28
2022-11-27T11:06:04.140Z,101083.09
2022-11-27T11:08:20.643Z,101071.13
2022-11-27T11:11:02.934Z,101075.00
2022-11-27T11:13:34.207Z,101078.97
2022-11-27T11:16:05.367Z,101080.69
2022-11-27T11:18:42.596Z,101075.97
2022-11-27T11:21:41.014Z,101072.84
2022-11-27T11:24:23.627Z,101092.78
2022-11-27T11:26:59.896Z,101088.34
2022-11-27T11:29:35.566Z,101072.44
2022-11-27T11:32:15.508Z,101055.66
2022-11-27T11:34:49.176Z,101050.63
2022-11-27T11:37:35.191Z,101028.53
2022-11-27T11:40:05.723Z,101026.03
2022-11-27T11:42:35.054Z,101011.78
2022-11-27T11:45:13.447Z,100995.28
2022-11-27T11:47:47.432Z,101002.00
2022-11-27T11:50:20.454Z,100978.53
2022-11-27T11:53:05.092Z,100980.19
2022-11-27T11:56:02.975Z,100965.31
2022-11-27T11:58:46.059Z,100954.44
2022-11-27T12:01:40.671Z,100910.78
2022-11-27T12:04:07.352Z,100927.28
2022-11-27T12:06:55.537Z,100957.19
2022-11-27T12:09:22.210Z,100952.44
2022-11-27T12:11:58.101Z,100963.94
2022-11-27T12:14:36.322Z,100997.47
2022-11-27T12:17:18.113Z,101012.03
2022-11-27T12:20:22.044Z,101012.03
2022-11-27T12:23:21.077Z,101009.59
2022-11-27T12:26:22.626Z,101000.38
2022-11-27T12:28:59.507Z,100959.25
2022-11-27T12:31:45.135Z,100950.88
2022-11-27T12:34:56.576Z,100971.03
2022-11-27T12:37:57.955Z,100949.75
2022-11-27T12:40:49.607Z,100941.06
2022-11-27T12:43:37.017Z,100950.03
2022-11-27T12:46:22.973Z,100966.00
2022-11-27T12:49:14.186Z,100970.50
2022-11-27T12:51:47.271Z,100969.41
2022-11-27T12:54:17.081Z,100972.44
2022-11-27T12:56:50.763Z,100967.16
2022-11-27T12:59:35.835Z,100973.03
2022-11-27T13:02:50.609Z,100968.81
2022-11-27T13:05:22.732Z,100966.53
2022-11-27T13:07:56.583Z,100962.91
2022-11-27T13:10:34.822Z,100959.50
2022-11-27T13:13:18.792Z,100967.91
2022-11-27T13:15:57.748Z,100971.25
2022-11-27T13:18:35.476Z,100964.50
2022-11-27T13:21:06.131Z,100953.56
2022-11-27T13:23:34.393Z,100949.38
2022-11-27T13:26:15.405Z,100950.78
2022-11-27T13:28:50.411Z,100958.31
2022-11-27T13:31:39.536Z,100947.41
2022-11-27T13:34:10.348Z,100950.44
2022-11-27T13:36:44.806Z,100954.94
2022-11-27T13:39:34.636Z,100936.19
2022-11-27T13:42:25.741Z,100921.91
2022-11-27T13:44:55.837Z,100937.59
2022-11-27T13:47:26.002Z,100930.84
2022-11-27T13:50:01.075Z,100934.31
2022-11-27T13:52:29.670Z,100926.72
2022-11-27T13:55:02.179Z,100930.06
2022-11-27T13:57:34.463Z,100922.44
2022-11-27T14:00:13.830Z,100909.00
2022-11-27T14:02:48.172Z,100912.31
2022-11-27T14:05:18.911Z,100908.06
2022-11-27T14:07:52.589Z,100914.97
2022-11-27T14:10:26.851Z,100890.56
2022-11-27T14:13:09.056Z,100903.66
2022-11-27T14:15:38.682Z,100899.91
2022-11-27T14:18:18.442Z,100913.00
2022-11-27T14:20:53.664Z,100908.38
2022-11-27T14:23:50.519Z,100903.84
2022-11-27T14:26:21.661Z,100914.19
2022-11-27T14:28:55.844Z,100897.44
2022-11-27T14:31:35.518Z,100889.81
2022-11-27T14:34:23.388Z,100895.94
2022-11-27T14:36:53.107Z,100888.34
2022-11-27T14:39:30.520Z,100900.63
2022-11-27T14:41:59.117Z,100877.44
2022-11-27T14:44:26.415Z,100881.22
2022-11-27T14:46:54.329Z,100884.00
2022-11-27T14:49:23.852Z,100875.50
2022-11-27T14:51:51.437Z,100879.72
2022-11-27T14:54:26.380Z,100882.75
2022-11-27T14:56:53.751Z,100871.75
2022-11-27T14:59:23.648Z,100877.94
2022-11-27T15:02:01.875Z,100874.81
2022-11-27T15:04:37.331Z,100872.88
2022-11-27T15:07:16.145Z,100864.97
2022-11-27T15:09:46.433Z,100864.69
2022-11-27T15:12:26.983Z,100870.31
2022-11-27T15:15:19.892Z,100871.31
2022-11-27T15:17:50.639Z,100866.47
2022-11-27T15:20:38.968Z,100867.63
2022-11-27T15:23:17.056Z,100854.75
2022-11-27T15:25:47.039Z,100859.69
2022-11-27T15:28:40.309Z,100850.09
2022-11-27T15:31:25.964Z,100855.03
2022-11-27T15:34:15.898Z,100844.22
2022-11-27T15:36:48.761Z,100855.75
2022-11-27T15:39:17.672Z,100860.84
2022-11-27T15:41:54.923Z,100888.69
2022-11-27T15:44:23.708Z,100884.47
2022-11-27T15:46:51.837Z,100894.00
2022-11-27T15:49:19.934Z,100901.09
2022-11-27T15:51:46.808Z,100907.91
2022-11-27T15:54:13.589Z,100917.81
2022-11-27T15:56:40.542Z,100931.25
2022-11-27T15:59:07.425Z,100931.28
2022-11-27T16:01:34.240Z,100942.56
2022-11-27T16:04:01.089Z,100947.97
2022-11-27T16:06:27.818Z,100935.88
2022-11-27T16:08:59.829Z,100942.31
2022-11-27T16:11:30.319Z,100938.44
2022-11-27T16:13:57.615Z,100937.28
2022-11-27T16:16:25.512Z,100932.47
2022-11-27T16:18:52.400Z,100949.59
2022-11-27T16:21:19.330Z,100951.63
2022-11-27T16:23:46.168Z,100951.34
2022-11-27T16:26:14.925Z,100959.59
2022-11-27T16:28:42.001Z,100958.78
2022-11-27T16:31:12.263Z,100967.69
2022-11-27T16:33:39.538Z,100957.03
2022-11-27T16:36:07.330Z,100958.31
2022-11-27T16:38:34.136Z,100943.56
2022-11-27T16:41:03.995Z,100972.44
2022-11-27T16:43:34.926Z,100972.72
2022-11-27T16:46:13.532Z,100986.75
2022-11-27T16:48:42.508Z,100980.53
2022-11-27T16:51:25.036Z,100974.69
2022-11-27T16:53:54.112Z,100981.16
2022-11-27T16:56:24.016Z,100983.97
2022-11-27T16:58:51.872Z,100979.75
2022-11-27T17:01:24.373Z,100981.66
2022-11-27T17:03:51.695Z,100987.34
2022-11-27T17:06:25.835Z,100980.72
2022-11-27T17:08:54.790Z,100996.97
2022-11-27T17:11:24.990Z,100998.97
2022-11-27T17:13:53.246Z,101018.00
2022-11-27T17:16:20.024Z,101003.00
2022-11-27T17:18:47.402Z,101003.69
2022-11-27T17:21:21.372Z,101021.63
2022-11-27T17:23:48.111Z,101002.88
2022-11-27T17:26:18.440Z,101012.34
2022-11-27T17:28:46.016Z,101020.47
2022-11-27T17:31:21.841Z,101013.19
2022-11-27T17:33:49.187Z,101024.72
2022-11-27T17:36:16.304Z,101015.50
2022-11-27T17:38:43.001Z,101028.97
2022-11-27T17:41:12.096Z,101021.63
2022-11-27T17:43:39.949Z,101030.13
2022-11-27T17:46:20.313Z,101032.41
2022-11-27T17:48:47.168Z,101047.59
2022-11-27T17:51:14.294Z,101055.94
2022-11-27T17:53:41.405Z,101037.41
2022-11-27T17:56:10.899Z,101041.97
2022-11-27T17:58:37.929Z,101044.84
2022-11-27T18:01:07.532Z,101033.63
2022-11-27T18:03:34.650Z,101040.84
2022-11-27T18:06:06.676Z,101052.09
2022-11-27T18:08:33.719Z,101048.16
2022-11-27T18:11:12.945Z,101043.91
2022-11-27T18:13:39.843Z,101038.16
2022-11-27T18:16:14.217Z,101048.88
2022-11-27T18:18:41.460Z,101052.06
2022-11-27T18:21:16.707Z,101054.63
2022-11-27T18:24:20.843Z,101053.28
2022-11-27T18:27:00.393Z,101050.25
2022-11-27T18:29:21.916Z,101057.56
2022-11-27T18:31:50.071Z,101072.16
2022-11-27T18:34:16.956Z,101076.06
2022-11-27T18:36:45.976Z,101069.31
2022-11-27T18:39:13.536Z,101079.38
2022-11-27T18:41:40.956Z,101096.72
2022-11-27T18:44:07.827Z,101085.72
2022-11-27T18:46:34.645Z,101101.69
2022-11-27T18:49:01.445Z,101106.69
2022-11-27T18:51:28.539Z,101105.81
2022-11-27T18:53:56.668Z,101104.41
2022-11-27T18:56:26.180Z,101106.66
2022-11-27T18:58:54.091Z,101116.72
2022-11-27T19:01:22.481Z,101115.94
2022-11-27T19:03:50.299Z,101123.47
2022-11-27T19:06:20.023Z,101129.13
2022-11-27T19:08:47.748Z,101129.66
2022-11-27T19:11:19.533Z,101137.47
2022-11-27T19:13:47.220Z,101131.06
2022-11-27T19:16:17.445Z,101130.78
2022-11-27T19:18:44.208Z,101134.59
2022-11-27T19:21:15.833Z,101126.88
2022-11-27T19:23:43.154Z,101134.72
2022-11-27T19:26:12.733Z,101134.13
2022-11-27T19:28:40.740Z,101141.44
2022-11-27T19:31:10.288Z,101141.16
2022-11-27T19:33:37.843Z,101142.28
2022-11-27T19:36:11.297Z,101147.03
2022-11-27T19:38:39.542Z,101144.78
2022-11-27T19:41:15.302Z,101147.88
2022-11-27T19:43:42.460Z,101143.94
2022-11-27T19:46:27.664Z,101144.72
2022-11-27T19:48:59.161Z,101159.06
2022-11-27T19:51:27.816Z,101157.63
2022-11-27T19:53:55.095Z,101158.75
2022-11-27T19:56:21.909Z,101174.44
2022-11-27T19:58:48.779Z,101179.97
2022-11-27T20:01:20.178Z,101180.50
2022-11-27T20:03:47.423Z,101186.69
2022-11-27T20:06:18.242Z,101185.56
2022-11-27T20:08:47.036Z,101176.88
2022-11-27T20:11:16.841Z,101180.47
2022-11-27T20:13:43.751Z,101186.59
2022-11-27T20:16:12.429Z,101195.81
2022-11-27T20:18:39.744Z,101196.03
2022-11-27T20:21:15.572Z,101204.63
2022-11-27T20:23:43.294Z,101204.91
2022-11-27T20:26:16.295Z,101197.03
2022-11-27T20:28:43.427Z,101199.91
2022-11-27T20:31:16.048Z,101199.91
2022-11-27T20:33:42.839Z,101201.56
2022-11-27T20:36:16.511Z,101200.19
2022-11-27T20:38:43.883Z,101201.88
2022-11-27T20:41:13.416Z,101199.66
2022-11-27T20:43:40.816Z,101203.59
2022-11-27T20:46:10.376Z,101187.66
2022-11-27T20:48:37.176Z,101212.81
2022-11-27T20:51:15.658Z,101211.69
2022-11-27T20:53:44.175Z,101220.63
2022-11-27T20:56:12.875Z,101228.19
2022-11-27T20:58:41.889Z,101225.38
2022-11-27T21:01:16.272Z,101234.00
2022-11-27T21:03:43.716Z,101232.63
2022-11-27T21:06:10.866Z,101237.91
2022-11-27T21:08:38.030Z,101242.06
2022-11-27T21:11:26.836Z,101226.06
2022-11-27T21:13:56.592Z,101235.56
2022-11-27T21:16:25.536Z,101234.72
2022-11-27T21:18:53.940Z,101239.47
2022-11-27T21:21:20.739Z,101219.78
2022-11-27T21:23:47.511Z,101238.28
2022-11-27T21:26:16.423Z,101242.72
2022-11-27T21:28:43.563Z,101248.56
2022-11-27T21:31:19.758Z,101249.97
2022-11-27T21:33:48.594Z,101237.56
2022-11-27T21:36:15.994Z,101259.41
2022-11-27T21:38:42.827Z,101262.13
2022-11-27T21:41:12.867Z,101252.06
2022-11-27T21:43:42.595Z,101232.63
2022-11-27T21:46:12.860Z,101270.16
2022-11-27T21:48:40.033Z,101275.34
2022-11-27T21:51:12.777Z,101270.91
2022-11-27T21:53:40.637Z,101275.97
2022-11-27T21:56:09.455Z,101283.81
2022-11-27T21:58:37.249Z,101286.66
2022-11-27T22:01:06.934Z,101283.84
2022-11-27T22:03:38.579Z,101278.78
2022-11-27T22:06:12.903Z,101288.28
2022-11-27T22:08:40.336Z,101288.56
2022-11-27T22:11:13.714Z,101295.50
2022-11-27T22:13:41.674Z,101295.44
2022-11-27T22:16:11.533Z,101295.72
2022-11-27T22:18:38.718Z,101302.09
2022-11-27T22:21:06.971Z,101288.66
2022-11-27T22:23:34.049Z,101307.09
2022-11-27T22:26:05.927Z,101297.81
2022-11-27T22:28:32.805Z,101291.38
2022-11-27T22:30:59.764Z,101283.06
2022-11-27T22:33:26.695Z,101300.47
2022-11-27T22:35:53.390Z,101301.03
2022-11-27T22:38:20.335Z,101302.25
2022-11-27T22:40:47.178Z,101296.16
2022-11-27T22:43:13.910Z,101295.09
2022-11-27T22:45:42.124Z,101298.50
2022-11-27T22:48:08.827Z,101295.72
2022-11-27T22:50:35.569Z,101299.38
2022-11-27T22:53:02.393Z,101303.09
2022-11-27T22:55:29.128Z,101301.97
2022-11-27T22:57:55.823Z,101298.09
2022-11-27T23:00:23.078Z,101299.72
2022-11-27T23:02:49.833Z,101294.66
2022-11-27T23:05:16.643Z,101297.19
2022-11-27T23:07:43.507Z,101300.19
2022-11-27T23:10:10.799Z,101299.34
2022-11-27T23:12:37.556Z,101301.00
2022-11-27T23:15:05.094Z,101304.91
2022-11-27T23:17:31.884Z,101313.28
2022-11-27T23:19:58.594Z,101307.94
2022-11-27T23:22:25.376Z,101304.03
2022-11-27T23:24:53.690Z,101309.09
2022-11-27T23:27:20.572Z,101307.44
2022-11-27T23:29:47.447Z,101306.28
2022-11-27T23:32:14.247Z,101313.53
2022-11-27T23:34:41.559Z,101312.19
2022-11-27T23:37:08.620Z,101315.84
2022-11-27T23:39:35.328Z,101310.16
2022-11-27T23:42:02.443Z,101317.16
2022-11-27T23:44:30.036Z,101319.09
2022-11-27T23:46:56.743Z,101310.91
2022-11-27T23:49:23.900Z,101308.38
2022-11-27T23:51:50.708Z,101311.75
2022-11-27T23:54:17.424Z,101305.88
2022-11-27T23:56:44.298Z,101301.66
2022-11-27T23:59:11.271Z,101301.63
